createdAt,value
2019-03-20T00:00:13.746Z,464.90
2019-03-20T00:03:22.792Z,470.77
2019-03-20T00:06:30.354Z,444.73
2019-03-20T00:09:37.914Z,472.10
2019-03-20T00:12:45.427Z,396.27
2019-03-20T00:15:52.947Z,384.30
2019-03-20T00:19:00.484Z,302.87
2019-03-20T00:22:08.136Z,279.60
2019-03-20T00:25:15.938Z,273.67
2019-03-20T00:28:25.397Z,225.03
2019-03-20T00:31:32.940Z,246.50
2019-03-20T00:34:40.566Z,263.40
2019-03-20T00:37:48.550Z,259.13
2019-03-20T00:40:56.117Z,238.47
2019-03-20T00:44:03.668Z,249.93
2019-03-20T00:47:11.089Z,246.53
2019-03-20T00:50:19.626Z,215.33
2019-03-20T00:53:27.093Z,237.20
2019-03-20T00:56:34.646Z,199.73
2019-03-20T00:59:42.066Z,193.03
2019-03-20T01:02:49.543Z,207.00
2019-03-20T01:05:56.991Z,209.10
2019-03-20T01:09:05.184Z,194.80
2019-03-20T01:12:12.713Z,200.40
2019-03-20T01:15:20.382Z,198.77
2019-03-20T01:18:27.855Z,201.70
2019-03-20T01:21:35.364Z,212.03
2019-03-20T01:24:42.829Z,213.93
2019-03-20T01:27:50.356Z,213.23
2019-03-20T01:30:57.882Z,199.90
2019-03-20T01:34:05.362Z,185.33
2019-03-20T01:37:12.954Z,179.90
2019-03-20T01:40:20.447Z,203.17
2019-03-20T01:43:27.900Z,222.87
2019-03-20T01:46:35.954Z,226.77
2019-03-20T01:49:43.464Z,222.43
2019-03-20T01:52:51.022Z,187.63
2019-03-20T01:56:01.596Z,202.67
2019-03-20T01:59:09.124Z,197.50
2019-03-20T02:02:16.578Z,186.47
2019-03-20T02:05:34.712Z,204.67
2019-03-20T02:08:33.108Z,194.37
2019-03-20T02:11:40.622Z,175.03
2019-03-20T02:14:48.088Z,199.43
2019-03-20T02:17:55.551Z,191.07
2019-03-20T02:21:03.828Z,171.17
2019-03-20T02:24:11.334Z,165.67
2019-03-20T02:27:18.875Z,193.17
2019-03-20T02:30:26.441Z,257.80
2019-03-20T02:33:33.896Z,287.70
2019-03-20T02:36:41.416Z,280.10
2019-03-20T02:39:48.837Z,239.43
2019-03-20T02:42:56.812Z,227.47
2019-03-20T02:46:04.382Z,226.73
2019-03-20T02:49:11.815Z,208.97
2019-03-20T02:52:19.270Z,227.23
2019-03-20T02:55:26.693Z,190.20
2019-03-20T02:58:34.211Z,180.87
2019-03-20T03:01:41.793Z,177.87
2019-03-20T03:04:49.249Z,173.63
2019-03-20T03:07:56.904Z,169.20
2019-03-20T03:11:05.236Z,178.90
2019-03-20T03:14:13.246Z,176.33
2019-03-20T03:17:20.710Z,192.13
2019-03-20T03:20:29.014Z,200.40
2019-03-20T03:23:36.440Z,235.33
2019-03-20T03:26:44.069Z,254.30
2019-03-20T03:29:51.509Z,233.57
2019-03-20T03:32:58.997Z,260.67
2019-03-20T03:36:20.253Z,224.67
2019-03-20T03:39:15.758Z,235.23
2019-03-20T03:42:23.193Z,233.37
2019-03-20T03:45:30.720Z,308.50
2019-03-20T03:48:38.182Z,354.30
2019-03-20T03:51:45.722Z,305.70
2019-03-20T03:54:53.245Z,343.03
2019-03-20T03:58:00.706Z,346.03
2019-03-20T04:01:08.142Z,372.93
2019-03-20T04:04:15.641Z,292.00
2019-03-20T04:07:23.819Z,332.00
2019-03-20T04:10:31.643Z,428.17
2019-03-20T04:13:39.136Z,450.13
2019-03-20T04:16:47.040Z,779.60
2019-03-20T04:19:54.586Z,725.43
2019-03-20T04:23:02.054Z,527.80
2019-03-20T04:26:09.606Z,513.80
2019-03-20T04:29:17.142Z,405.63
2019-03-20T04:32:24.655Z,365.93
2019-03-20T04:35:32.184Z,442.27
2019-03-20T04:38:39.736Z,445.47
2019-03-20T04:41:47.184Z,648.57
2019-03-20T04:44:54.747Z,593.97
2019-03-20T04:48:02.255Z,475.30
2019-03-20T04:51:09.745Z,491.03
2019-03-20T04:54:17.307Z,451.23
2019-03-20T04:57:24.811Z,356.13
2019-03-20T05:00:32.316Z,354.97
2019-03-20T05:03:39.811Z,413.30
2019-03-20T05:06:57.992Z,436.37
2019-03-20T05:09:56.645Z,393.73
2019-03-20T05:13:04.194Z,419.93
2019-03-20T05:16:11.697Z,403.70
2019-03-20T05:19:19.660Z,415.40
2019-03-20T05:22:27.216Z,418.80
2019-03-20T05:25:34.758Z,438.40
2019-03-20T05:28:42.205Z,447.70
2019-03-20T05:31:49.657Z,395.63
2019-03-20T05:34:57.114Z,416.13
2019-03-20T05:38:04.835Z,373.00
2019-03-20T05:41:12.453Z,387.03
2019-03-20T05:44:19.972Z,331.97
2019-03-20T05:47:27.438Z,372.57
2019-03-20T05:50:36.135Z,302.97
2019-03-20T05:53:43.919Z,265.03
2019-03-20T05:56:52.985Z,277.27
2019-03-20T06:00:00.571Z,289.23
2019-03-20T06:03:08.051Z,280.83
2019-03-20T06:06:15.836Z,280.70
2019-03-20T06:09:23.410Z,235.47
2019-03-20T06:12:30.955Z,207.50
2019-03-20T06:15:38.529Z,200.83
2019-03-20T06:18:46.093Z,193.73
2019-03-20T06:21:54.538Z,169.73
2019-03-20T06:25:02.194Z,165.73
2019-03-20T06:28:09.838Z,142.27
2019-03-20T06:31:18.869Z,126.70
2019-03-20T06:34:26.521Z,109.20
2019-03-20T06:37:34.015Z,85.93
2019-03-20T06:40:42.445Z,91.00
2019-03-20T06:43:49.870Z,96.30
2019-03-20T06:46:57.327Z,98.43
2019-03-20T06:50:05.136Z,101.30
2019-03-20T06:53:12.760Z,103.33
2019-03-20T06:56:20.304Z,101.73
2019-03-20T07:00:11.931Z,97.03
2019-03-20T07:03:23.699Z,104.33
2019-03-20T07:06:47.677Z,77.13
2019-03-20T07:10:11.627Z,67.90
2019-03-20T07:13:19.183Z,72.17
2019-03-20T07:16:26.665Z,63.80
2019-03-20T07:19:34.143Z,65.77
2019-03-20T07:22:41.781Z,127.23
2019-03-20T07:25:49.219Z,93.43
2019-03-20T07:28:56.625Z,105.47
2019-03-20T07:32:04.305Z,85.03
2019-03-20T07:35:11.848Z,84.87
2019-03-20T07:38:19.342Z,70.97
2019-03-20T07:41:26.833Z,61.13
2019-03-20T07:44:34.285Z,57.63
2019-03-20T07:47:41.726Z,52.17
2019-03-20T07:50:49.288Z,59.93
2019-03-20T07:53:56.772Z,59.17
2019-03-20T07:57:04.379Z,45.40
2019-03-20T08:00:13.711Z,55.40
2019-03-20T08:03:21.287Z,58.83
2019-03-20T08:06:28.719Z,58.03
2019-03-20T08:09:36.348Z,69.17
2019-03-20T08:12:43.941Z,54.93
2019-03-20T08:15:51.410Z,44.07
2019-03-20T08:18:58.959Z,53.40
2019-03-20T08:22:06.425Z,45.30
2019-03-20T08:25:14.345Z,53.43
2019-03-20T08:28:22.052Z,36.30
2019-03-20T08:31:29.639Z,32.73
2019-03-20T08:34:37.139Z,27.53
2019-03-20T08:37:44.731Z,19.23
2019-03-20T08:40:52.197Z,31.47
2019-03-20T08:43:59.647Z,25.60
2019-03-20T08:47:07.136Z,18.90
2019-03-20T08:50:18.051Z,19.13
2019-03-20T08:53:25.597Z,29.23
2019-03-20T08:56:33.193Z,32.47
2019-03-20T08:59:40.769Z,24.40
2019-03-20T09:02:48.286Z,24.97
2019-03-20T09:05:55.800Z,23.00
2019-03-20T09:09:03.369Z,16.57
2019-03-20T09:12:11.107Z,23.27
2019-03-20T09:15:18.857Z,25.10
2019-03-20T09:18:26.746Z,29.07
2019-03-20T09:21:35.293Z,23.33
2019-03-20T09:24:42.802Z,16.07
2019-03-20T09:27:50.409Z,26.63
2019-03-20T09:30:57.964Z,21.50
2019-03-20T09:34:05.606Z,18.80
2019-03-20T09:37:13.267Z,26.03
2019-03-20T09:40:23.486Z,28.60
2019-03-20T09:43:30.429Z,30.50
2019-03-20T09:46:38.020Z,20.60
2019-03-20T09:49:45.613Z,18.87
2019-03-20T09:52:53.159Z,18.07
2019-03-20T09:56:00.635Z,22.07
2019-03-20T09:59:08.143Z,23.30
2019-03-20T10:02:16.117Z,26.90
2019-03-20T10:05:23.881Z,24.50
2019-03-20T10:08:31.453Z,23.87
2019-03-20T10:11:39.121Z,72.90
2019-03-20T10:14:46.686Z,29.73
2019-03-20T10:17:54.143Z,20.23
2019-03-20T10:21:01.601Z,28.37
2019-03-20T10:24:09.685Z,31.17
2019-03-20T10:27:17.139Z,27.03
2019-03-20T10:30:24.839Z,26.50
2019-03-20T10:33:32.369Z,13.10
2019-03-20T10:36:39.856Z,14.77
2019-03-20T10:39:47.381Z,18.23
2019-03-20T10:42:55.196Z,17.83
2019-03-20T10:46:02.926Z,17.53
2019-03-20T10:49:10.562Z,23.23
2019-03-20T10:52:18.184Z,13.70
2019-03-20T10:55:25.771Z,16.03
2019-03-20T10:58:33.603Z,14.17
2019-03-20T11:01:42.818Z,16.23
2019-03-20T11:04:50.473Z,13.13
2019-03-20T11:07:58.052Z,22.60
2019-03-20T11:11:05.766Z,10.63
2019-03-20T11:14:13.253Z,20.63
2019-03-20T11:17:20.809Z,9.47
2019-03-20T11:20:28.404Z,17.10
2019-03-20T11:23:35.895Z,19.63
2019-03-20T11:26:43.357Z,18.50
2019-03-20T11:29:50.870Z,10.70
2019-03-20T11:32:58.496Z,19.60
2019-03-20T11:36:06.050Z,18.00
2019-03-20T11:39:13.625Z,17.63
2019-03-20T11:42:21.262Z,24.70
2019-03-20T11:45:28.937Z,39.07
2019-03-20T11:48:36.554Z,28.53
2019-03-20T11:51:44.052Z,35.80
2019-03-20T11:54:51.569Z,24.73
2019-03-20T11:57:59.448Z,30.27
2019-03-20T12:01:07.088Z,23.87
2019-03-20T12:04:14.919Z,21.97
2019-03-20T12:07:22.574Z,25.97
2019-03-20T12:10:30.179Z,19.40
2019-03-20T12:13:37.684Z,25.07
2019-03-20T12:16:45.388Z,20.23
2019-03-20T12:19:52.980Z,23.00
2019-03-20T12:23:00.522Z,28.90
2019-03-20T12:26:08.098Z,18.87
2019-03-20T12:29:15.887Z,11.10
2019-03-20T12:32:23.631Z,16.10
2019-03-20T12:35:31.975Z,14.20
2019-03-20T12:38:39.505Z,18.70
2019-03-20T12:41:46.986Z,22.23
2019-03-20T12:44:54.544Z,19.40
2019-03-20T12:48:02.153Z,20.67
2019-03-20T12:51:09.723Z,22.57
2019-03-20T12:54:17.257Z,16.13
2019-03-20T12:57:24.804Z,20.50
2019-03-20T13:00:33.924Z,16.90
2019-03-20T13:03:41.490Z,15.60
2019-03-20T13:06:48.970Z,19.30
2019-03-20T13:10:03.158Z,23.93
2019-03-20T13:13:05.824Z,19.17
2019-03-20T13:16:13.627Z,21.40
2019-03-20T13:19:22.269Z,15.03
2019-03-20T13:22:30.138Z,13.27
2019-03-20T13:25:37.912Z,12.30
2019-03-20T13:28:45.653Z,9.17
2019-03-20T13:31:53.068Z,10.80
2019-03-20T13:35:00.685Z,9.73
2019-03-20T13:38:08.376Z,10.50
2019-03-20T13:41:16.140Z,10.60
2019-03-20T13:44:23.606Z,15.97
2019-03-20T13:47:31.316Z,23.20
2019-03-20T13:50:40.463Z,20.20
2019-03-20T13:53:47.967Z,20.80
2019-03-20T13:56:55.600Z,32.17
2019-03-20T14:00:03.098Z,27.87
2019-03-20T14:03:12.135Z,13.37
2019-03-20T14:06:19.684Z,23.63
2019-03-20T14:09:27.654Z,15.30
2019-03-20T14:12:35.424Z,18.20
2019-03-20T14:15:44.972Z,22.07
2019-03-20T14:18:52.449Z,14.27
2019-03-20T14:21:59.941Z,12.03
2019-03-20T14:25:07.937Z,18.63
2019-03-20T14:28:15.535Z,17.77
2019-03-20T14:31:23.167Z,15.93
2019-03-20T14:34:30.627Z,13.40
2019-03-20T14:37:38.131Z,27.73
2019-03-20T14:40:45.966Z,28.87
2019-03-20T14:43:53.480Z,19.37
2019-03-20T14:47:01.062Z,44.50
2019-03-20T14:50:10.417Z,47.93
2019-03-20T14:53:17.992Z,35.93
2019-03-20T14:56:25.464Z,11.70
2019-03-20T14:59:33.058Z,26.67
2019-03-20T15:02:40.687Z,35.33
2019-03-20T15:05:48.172Z,17.27
2019-03-20T15:08:56.788Z,13.60
2019-03-20T15:12:04.387Z,14.53
2019-03-20T15:15:16.399Z,9.40
2019-03-20T15:18:24.011Z,20.90
2019-03-20T15:21:31.623Z,10.40
2019-03-20T15:24:39.350Z,13.70
2019-03-20T15:27:47.047Z,15.43
2019-03-20T15:30:54.568Z,28.47
2019-03-20T15:34:03.188Z,34.67
2019-03-20T15:37:10.601Z,122.50
2019-03-20T15:40:18.282Z,28.10
2019-03-20T15:43:25.842Z,35.37
2019-03-20T15:46:34.474Z,66.73
2019-03-20T15:49:41.914Z,58.00
2019-03-20T15:52:49.604Z,64.33
2019-03-20T15:55:57.534Z,20.97
2019-03-20T15:59:05.129Z,20.90
2019-03-20T16:02:12.572Z,22.93
2019-03-20T16:05:20.133Z,67.30
2019-03-20T16:08:27.883Z,48.67
2019-03-20T16:11:35.591Z,49.87
2019-03-20T16:14:45.458Z,68.27
2019-03-20T16:17:53.181Z,37.60
2019-03-20T16:21:00.748Z,23.00
2019-03-20T16:24:08.295Z,36.47
2019-03-20T16:27:15.877Z,39.20
2019-03-20T16:30:23.826Z,28.87
2019-03-20T16:33:31.363Z,21.90
2019-03-20T16:36:38.948Z,22.67
2019-03-20T16:39:46.540Z,31.17
2019-03-20T16:42:54.043Z,28.13
2019-03-20T16:46:01.768Z,24.97
2019-03-20T16:49:09.288Z,25.80
2019-03-20T16:52:16.862Z,25.97
2019-03-20T16:55:24.571Z,30.80
2019-03-20T16:58:32.268Z,32.83
2019-03-20T17:01:40.956Z,45.30
2019-03-20T17:04:48.589Z,57.33
2019-03-20T17:07:56.262Z,71.70
2019-03-20T17:11:03.792Z,83.37
2019-03-20T17:14:11.255Z,95.93
2019-03-20T17:17:18.823Z,120.40
2019-03-20T17:20:26.328Z,260.07
2019-03-20T17:23:33.902Z,224.93
2019-03-20T17:26:42.590Z,214.73
2019-03-20T17:29:50.074Z,211.30
2019-03-20T17:32:58.616Z,222.20
2019-03-20T17:36:06.288Z,245.13
2019-03-20T17:39:13.896Z,264.07
2019-03-20T17:42:21.326Z,234.13
2019-03-20T17:45:29.374Z,307.77
2019-03-20T17:48:38.105Z,344.93
2019-03-20T17:51:45.639Z,400.70
2019-03-20T17:54:53.286Z,532.60
2019-03-20T17:58:00.860Z,531.47
2019-03-20T18:01:08.367Z,449.87
2019-03-20T18:04:15.976Z,426.10
2019-03-20T18:07:23.488Z,380.27
2019-03-20T18:10:33.107Z,479.40
2019-03-20T18:13:40.342Z,546.63
2019-03-20T18:16:47.919Z,516.10
2019-03-20T18:19:56.440Z,444.20
2019-03-20T18:23:05.168Z,474.57
2019-03-20T18:26:13.955Z,708.80
2019-03-20T18:29:21.521Z,480.53
2019-03-20T18:32:29.307Z,464.77
2019-03-20T18:35:37.905Z,464.23
2019-03-20T18:38:45.850Z,469.00
2019-03-20T18:41:57.737Z,492.03
2019-03-20T18:45:02.747Z,436.57
2019-03-20T18:48:10.400Z,420.87
2019-03-20T18:51:18.016Z,416.67
2019-03-20T18:54:25.568Z,445.07
2019-03-20T18:57:33.705Z,453.27
2019-03-20T19:00:41.156Z,449.20
2019-03-20T19:03:48.758Z,488.43
2019-03-20T19:06:56.387Z,526.30
2019-03-20T19:10:03.934Z,597.00
2019-03-20T19:13:11.573Z,564.80
2019-03-20T19:16:19.413Z,512.70
2019-03-20T19:19:27.622Z,549.87
2019-03-20T19:22:35.204Z,626.50
2019-03-20T19:25:42.918Z,600.43
2019-03-20T19:28:50.394Z,625.77
2019-03-20T19:31:57.993Z,769.67
2019-03-20T19:35:06.646Z,847.20
2019-03-20T19:38:14.414Z,684.13
2019-03-20T19:41:21.938Z,747.20
2019-03-20T19:44:29.537Z,559.00
2019-03-20T19:47:37.085Z,454.87
2019-03-20T19:50:44.669Z,400.63
2019-03-20T19:53:52.522Z,428.10
2019-03-20T19:57:00.070Z,455.07
2019-03-20T20:00:11.063Z,376.50
2019-03-20T20:03:19.820Z,376.97
2019-03-20T20:06:27.385Z,398.40
2019-03-20T20:09:34.899Z,427.87
2019-03-20T20:12:42.555Z,467.73
2019-03-20T20:15:50.200Z,522.63
2019-03-20T20:18:57.753Z,561.33
2019-03-20T20:22:05.303Z,542.23
2019-03-20T20:25:12.809Z,471.70
2019-03-20T20:28:20.431Z,474.40
2019-03-20T20:31:27.970Z,367.17
2019-03-20T20:34:36.749Z,323.07
2019-03-20T20:37:44.500Z,274.93
2019-03-20T20:40:52.026Z,297.90
2019-03-20T20:43:59.624Z,294.77
2019-03-20T20:47:07.279Z,320.37
2019-03-20T20:50:14.950Z,272.07
2019-03-20T20:53:22.617Z,287.47
2019-03-20T20:56:30.163Z,201.63
2019-03-20T20:59:37.755Z,231.67
2019-03-20T21:02:45.382Z,215.57
2019-03-20T21:05:52.924Z,155.57
2019-03-20T21:09:00.389Z,137.57
2019-03-20T21:12:08.365Z,159.63
2019-03-20T21:15:37.258Z,178.43
2019-03-20T21:19:20.711Z,205.93
2019-03-20T21:23:04.768Z,177.00
2019-03-20T21:26:13.495Z,190.70
2019-03-20T21:29:56.258Z,179.07
2019-03-20T21:33:05.611Z,198.70
2019-03-20T21:37:21.429Z,228.87
2019-03-20T21:40:30.189Z,260.27
2019-03-20T21:44:30.311Z,267.80
2019-03-20T21:47:36.715Z,273.90
2019-03-20T21:51:10.872Z,247.10
2019-03-20T21:55:02.272Z,278.87
2019-03-20T21:58:16.412Z,260.80
2019-03-20T22:02:06.230Z,264.47
2019-03-20T22:05:23.283Z,278.93
2019-03-20T22:08:30.506Z,284.70
2019-03-20T22:12:17.226Z,244.87
2019-03-20T22:15:53.670Z,282.33
2019-03-20T22:19:45.064Z,314.13
2019-03-20T22:23:34.658Z,293.83
2019-03-20T22:27:17.689Z,320.17
2019-03-20T22:30:26.272Z,260.87
2019-03-20T22:34:09.575Z,224.17
2019-03-20T22:37:18.590Z,225.17
2019-03-20T22:41:01.786Z,175.83
2019-03-20T22:44:10.484Z,218.93
2019-03-20T22:47:54.106Z,184.13
2019-03-20T22:51:39.694Z,177.57
2019-03-20T22:55:26.680Z,164.07
2019-03-20T22:58:48.285Z,190.53
2019-03-20T23:02:27.181Z,164.33
2019-03-20T23:05:35.813Z,186.73
2019-03-20T23:08:44.450Z,180.87
2019-03-20T23:11:53.196Z,154.00
2019-03-20T23:15:01.836Z,159.87
2019-03-20T23:18:11.739Z,172.37
2019-03-20T23:21:20.298Z,154.93
2019-03-20T23:24:28.840Z,148.50
2019-03-20T23:27:37.646Z,139.10
2019-03-20T23:30:46.608Z,146.47
2019-03-20T23:33:55.199Z,138.40
2019-03-20T23:37:05.081Z,155.40
2019-03-20T23:40:15.109Z,157.13
2019-03-20T23:43:24.988Z,152.37
2019-03-20T23:46:33.806Z,129.87
2019-03-20T23:49:42.864Z,151.17
2019-03-20T23:52:51.452Z,140.70
2019-03-20T23:56:00.188Z,140.37
2019-03-20T23:59:09.194Z,133.23
